createdAt,value
2018-04-08T07:15:54.610Z,21.40
2018-04-08T07:18:23.485Z,22.40
2018-04-08T07:24:11.983Z,22.20
2018-04-08T07:26:40.619Z,20.90
2018-04-08T07:29:08.487Z,20.90
2018-04-08T07:31:36.417Z,21.40
2018-04-08T07:34:04.372Z,21.10
2018-04-08T07:36:33.023Z,21.10
2018-04-08T07:39:01.004Z,21.10
2018-04-08T07:41:29.675Z,21.00
2018-04-08T07:43:57.580Z,21.00
2018-04-08T07:46:25.592Z,20.50
2018-04-08T07:48:53.546Z,20.40
2018-04-08T07:51:21.497Z,20.60
2018-04-08T07:53:49.458Z,21.10
2018-04-08T07:56:17.413Z,21.00
2018-04-08T07:58:46.147Z,21.00
2018-04-08T08:01:14.141Z,21.00
2018-04-08T08:03:42.039Z,20.80
2018-04-08T08:06:10.017Z,20.90
2018-04-08T08:08:37.931Z,20.90
2018-04-08T08:11:05.975Z,20.90
2018-04-08T08:13:33.928Z,20.90
2018-04-08T08:16:01.879Z,20.90
2018-04-08T08:18:30.546Z,20.80
2018-04-08T08:20:59.216Z,20.60
2018-04-08T08:23:27.184Z,20.60
2018-04-08T08:25:55.149Z,20.60
2018-04-08T08:28:23.222Z,20.80
2018-04-08T08:30:51.292Z,20.70
2018-04-08T08:33:19.158Z,21.30
2018-04-08T08:35:47.098Z,21.70
2018-04-08T08:38:15.238Z,21.30
2018-04-08T08:40:43.117Z,21.50
2018-04-08T08:43:11.084Z,22.00
2018-04-08T08:45:38.994Z,22.50
2018-04-08T08:48:06.864Z,22.60
2018-04-08T08:50:34.746Z,22.20
2018-04-08T08:53:02.628Z,22.00
2018-04-08T08:55:31.254Z,22.30
2018-04-08T08:57:59.125Z,22.30
2018-04-08T09:00:27.006Z,22.10
2018-04-08T09:02:54.895Z,22.40
2018-04-08T09:05:22.834Z,22.60
2018-04-08T09:07:50.727Z,22.60
2018-04-08T09:10:18.681Z,22.70
2018-04-08T09:15:22.764Z,23.00
2018-04-08T09:17:50.678Z,23.00
2018-04-08T09:20:38.306Z,22.70
2018-04-08T09:23:12.752Z,22.90
2018-04-08T09:25:47.192Z,23.40
2018-04-08T09:28:15.048Z,23.40
2018-04-08T09:30:43.639Z,23.50
2018-04-08T09:33:11.508Z,23.50
2018-04-08T09:35:39.325Z,23.30
2018-04-08T09:38:07.327Z,23.10
2018-04-08T09:40:35.874Z,22.90
2018-04-08T09:43:04.529Z,23.30
2018-04-08T09:45:32.352Z,23.20
2018-04-08T09:48:00.951Z,23.20
2018-04-08T09:50:29.509Z,22.80
2018-04-08T09:52:58.044Z,22.80
2018-04-08T09:55:25.957Z,22.80
2018-04-08T09:57:53.832Z,22.80
2018-04-08T10:00:41.145Z,22.70
2018-04-08T10:03:14.749Z,22.70
2018-04-08T10:05:52.322Z,22.30
2018-04-08T10:08:20.208Z,22.00
2018-04-08T10:10:48.009Z,22.10
2018-04-08T10:13:15.795Z,22.50
2018-04-08T10:15:43.811Z,22.40
2018-04-08T10:18:12.430Z,22.50
2018-04-08T10:20:40.488Z,22.40
2018-04-08T10:23:08.409Z,22.80
2018-04-08T10:25:36.357Z,22.70
2018-04-08T10:28:04.349Z,22.90
2018-04-08T10:30:32.334Z,22.90
2018-04-08T10:33:00.160Z,22.80
2018-04-08T10:35:28.054Z,22.90
2018-04-08T10:37:56.123Z,22.90
2018-04-08T10:40:24.503Z,22.80
2018-04-08T10:42:52.372Z,22.80
2018-04-08T10:45:20.160Z,23.10
2018-04-08T10:47:48.779Z,23.00
2018-04-08T10:50:16.563Z,22.90
2018-04-08T10:52:44.334Z,23.30
2018-04-08T10:55:12.133Z,23.70
2018-04-08T10:57:40.696Z,22.90
2018-04-08T11:00:08.490Z,22.90
2018-04-08T11:02:37.450Z,23.80
2018-04-08T11:05:06.150Z,23.60
2018-04-08T11:07:34.704Z,23.80
2018-04-08T11:10:02.506Z,23.80
2018-04-08T11:12:31.107Z,24.10
2018-04-08T11:14:58.921Z,24.10
2018-04-08T11:17:26.723Z,23.90
2018-04-08T11:19:54.655Z,24.10
2018-04-08T11:22:22.464Z,23.90
2018-04-08T11:24:50.332Z,24.00
2018-04-08T11:27:18.119Z,24.00
2018-04-08T11:29:45.994Z,23.70
2018-04-08T11:32:13.773Z,24.30
2018-04-08T11:34:41.579Z,24.20
2018-04-08T11:37:10.140Z,24.20
2018-04-08T11:39:38.047Z,24.10
2018-04-08T11:42:05.826Z,24.20
2018-04-08T11:44:33.711Z,23.70
2018-04-08T11:47:01.604Z,23.90
2018-04-08T11:49:29.468Z,23.80
2018-04-08T11:51:57.343Z,24.20
2018-04-08T11:54:26.010Z,24.20
2018-04-08T11:56:53.801Z,24.20
2018-04-08T11:59:22.407Z,24.30
2018-04-08T12:01:50.276Z,24.20
2018-04-08T12:04:18.215Z,24.40
2018-04-08T12:06:46.904Z,25.00
2018-04-08T12:09:15.558Z,24.90
2018-04-08T12:11:43.450Z,24.90
2018-04-08T12:14:12.220Z,26.90
2018-04-08T12:16:40.056Z,26.80
2018-04-08T12:19:07.966Z,26.60
2018-04-08T12:21:36.627Z,25.90
2018-04-08T12:24:04.435Z,26.00
2018-04-08T12:26:32.357Z,25.70
2018-04-08T12:29:00.291Z,25.20
2018-04-08T12:31:28.260Z,25.50
2018-04-08T12:33:56.147Z,25.60
2018-04-08T12:36:24.030Z,25.90
2018-04-08T12:38:51.891Z,26.40
2018-04-08T12:41:19.706Z,27.50
2018-04-08T12:43:47.520Z,26.90
2018-04-08T12:46:15.322Z,27.10
2018-04-08T12:48:43.968Z,27.50
2018-04-08T12:51:11.765Z,27.50
2018-04-08T12:53:40.726Z,27.00
2018-04-08T12:56:08.604Z,26.90
2018-04-08T12:58:36.441Z,26.80
2018-04-08T13:01:04.278Z,26.00
2018-04-08T13:03:32.245Z,25.60
2018-04-08T13:06:00.056Z,25.80
2018-04-08T13:08:28.148Z,26.50
2018-04-08T13:10:56.711Z,27.20
2018-04-08T13:13:24.534Z,27.20
2018-04-08T13:15:52.694Z,26.10
2018-04-08T13:18:20.545Z,26.20
2018-04-08T13:20:49.159Z,25.70
2018-04-08T13:23:16.928Z,25.70
2018-04-08T13:25:44.776Z,25.30
2018-04-08T13:28:12.619Z,25.70
2018-04-08T13:30:41.275Z,26.20
2018-04-08T13:33:09.091Z,26.20
2018-04-08T13:35:36.904Z,25.70
2018-04-08T13:38:04.752Z,25.90
2018-04-08T13:40:32.614Z,25.70
2018-04-08T13:43:00.453Z,25.60
2018-04-08T13:45:28.236Z,24.70
2018-04-08T13:47:56.074Z,24.20
2018-04-08T13:50:24.613Z,25.00
2018-04-08T13:52:52.422Z,25.00
2018-04-08T13:55:20.988Z,25.00
2018-04-08T13:57:49.551Z,24.80
2018-04-08T14:00:17.363Z,24.80
2018-04-08T14:02:45.236Z,24.30
2018-04-08T14:05:13.008Z,24.20
2018-04-08T14:07:40.963Z,24.10
2018-04-08T14:10:08.724Z,24.00
2018-04-08T14:12:36.512Z,24.30
2018-04-08T14:15:04.340Z,24.20
2018-04-08T14:17:32.879Z,23.90
2018-04-08T14:20:00.676Z,23.90
2018-04-08T14:22:29.227Z,24.10
2018-04-08T14:24:57.030Z,24.10
2018-04-08T14:27:24.784Z,24.30
2018-04-08T14:29:53.403Z,24.00
2018-04-08T14:32:21.243Z,24.00
2018-04-08T14:34:49.762Z,24.00
2018-04-08T14:37:17.607Z,24.00
2018-04-08T14:39:45.451Z,23.90
2018-04-08T14:42:14.014Z,23.90
2018-04-08T14:44:41.969Z,23.90
2018-04-08T14:47:09.918Z,23.80
2018-04-08T14:49:37.758Z,23.70
2018-04-08T14:52:05.529Z,23.70
2018-04-08T14:54:33.303Z,23.70
2018-04-08T14:57:01.851Z,23.60
2018-04-08T14:59:30.477Z,23.70
2018-04-08T15:01:58.363Z,23.70
2018-04-08T15:04:26.186Z,23.60
2018-04-08T15:06:54.057Z,23.50
2018-04-08T15:09:21.857Z,23.60
2018-04-08T15:11:49.619Z,23.80
2018-04-08T15:14:17.447Z,23.70
2018-04-08T15:16:45.291Z,23.90
2018-04-08T15:19:13.884Z,23.70
2018-04-08T15:21:41.741Z,23.60
2018-04-08T15:24:09.669Z,23.50
2018-04-08T15:26:37.443Z,23.40
2018-04-08T15:29:05.248Z,23.50
2018-04-08T15:31:33.038Z,23.40
2018-04-08T15:34:00.913Z,23.20
2018-04-08T15:36:29.540Z,23.40
2018-04-08T15:38:58.064Z,23.40
2018-04-08T15:41:25.911Z,23.40
2018-04-08T15:43:53.791Z,23.50
2018-04-08T15:46:21.724Z,23.40
2018-04-08T15:48:50.299Z,23.40
2018-04-08T15:51:18.966Z,23.20
2018-04-08T15:53:46.763Z,23.10
2018-04-08T15:56:15.302Z,23.00
2018-04-08T15:58:43.089Z,23.00
2018-04-08T16:01:10.877Z,22.90
2018-04-08T16:03:38.651Z,23.00
2018-04-08T16:06:06.555Z,23.00
2018-04-08T16:08:34.360Z,23.10
2018-04-08T16:11:02.911Z,22.80
2018-04-08T16:13:30.774Z,22.80
2018-04-08T16:15:58.581Z,22.80
2018-04-08T16:18:27.154Z,22.60
2018-04-08T16:20:55.766Z,22.50
2018-04-08T16:23:23.635Z,22.50
2018-04-08T16:25:51.506Z,22.50
2018-04-08T16:28:19.371Z,22.20
2018-04-08T16:30:47.223Z,22.40
2018-04-08T16:33:15.030Z,22.30
2018-04-08T16:35:42.900Z,22.30
2018-04-08T16:38:10.729Z,22.20
2018-04-08T16:40:38.535Z,22.20
2018-04-08T16:43:06.446Z,22.20
2018-04-08T16:45:34.313Z,22.20
2018-04-08T16:48:02.194Z,22.20
2018-04-08T16:50:30.045Z,22.10
2018-04-08T16:52:57.958Z,22.10
2018-04-08T16:55:25.806Z,22.20
2018-04-08T16:57:53.745Z,21.90
2018-04-08T17:00:21.639Z,21.80
2018-04-08T17:02:49.427Z,21.60
2018-04-08T17:05:17.244Z,21.60
2018-04-08T17:07:45.065Z,21.60
2018-04-08T17:10:12.856Z,21.40
2018-04-08T17:12:41.478Z,21.50
2018-04-08T17:15:09.475Z,21.40
2018-04-08T17:17:37.409Z,21.40
2018-04-08T17:20:05.312Z,21.20
2018-04-08T17:22:33.131Z,21.20
2018-04-08T17:25:00.978Z,21.20
2018-04-08T17:27:29.601Z,20.90
2018-04-08T17:29:57.490Z,20.90
2018-04-08T17:32:25.305Z,20.90
2018-04-08T17:34:53.137Z,20.90
2018-04-08T17:37:21.957Z,20.60
2018-04-08T17:39:49.773Z,20.60
2018-04-08T17:42:18.487Z,20.50
2018-04-08T17:44:47.230Z,20.50
2018-04-08T17:47:15.231Z,20.40
2018-04-08T17:49:43.079Z,20.20
2018-04-08T17:52:11.051Z,20.10
2018-04-08T17:54:38.914Z,19.90
2018-04-08T17:57:07.052Z,19.90
2018-04-08T17:59:35.265Z,19.90
2018-04-08T18:02:03.144Z,19.90
2018-04-08T18:04:31.052Z,19.60
2018-04-08T18:06:58.889Z,19.60
2018-04-08T18:09:27.575Z,19.40
2018-04-08T18:11:56.233Z,19.20
2018-04-08T18:14:24.201Z,19.20
2018-04-08T18:16:52.022Z,19.10
2018-04-08T18:19:19.952Z,19.00
2018-04-08T18:21:49.160Z,18.90
2018-04-08T18:24:17.778Z,19.00
2018-04-08T18:26:45.680Z,19.00
2018-04-08T18:29:13.498Z,18.90
2018-04-08T18:31:41.307Z,18.70
2018-04-08T18:34:09.160Z,18.70
2018-04-08T18:36:37.034Z,18.60
2018-04-08T18:39:05.010Z,18.60
2018-04-08T18:41:32.844Z,18.60
2018-04-08T18:44:00.755Z,18.60
2018-04-08T18:46:28.543Z,18.60
2018-04-08T18:48:57.161Z,18.20
2018-04-08T18:51:25.106Z,18.20
2018-04-08T18:53:52.954Z,18.00
2018-04-08T18:56:21.588Z,18.00
2018-04-08T18:58:49.446Z,18.00
2018-04-08T19:01:17.285Z,17.90
2018-04-08T19:03:45.895Z,17.70
2018-04-08T19:06:13.754Z,17.70
2018-04-08T19:08:41.567Z,17.70
2018-04-08T19:11:09.422Z,17.50
2018-04-08T19:13:37.308Z,17.50
2018-04-08T19:16:05.916Z,17.50
2018-04-08T19:18:33.704Z,17.50
2018-04-08T19:21:02.496Z,17.40
2018-04-08T19:23:30.344Z,17.30
2018-04-08T19:25:58.209Z,17.20
2018-04-08T19:28:26.082Z,17.00
2018-04-08T19:30:53.952Z,17.00
2018-04-08T19:33:21.845Z,17.00
2018-04-08T19:35:49.875Z,16.90
2018-04-08T19:38:17.677Z,16.90
2018-04-08T19:40:45.560Z,16.60
2018-04-08T19:43:13.475Z,16.60
2018-04-08T19:45:41.344Z,16.50
2018-04-08T19:48:09.309Z,16.50
2018-04-08T19:50:37.394Z,16.50
2018-04-08T19:53:05.490Z,16.30
2018-04-08T19:55:33.416Z,16.10
2018-04-08T19:58:01.534Z,16.10
2018-04-08T20:00:30.124Z,16.00
2018-04-08T20:02:58.435Z,16.00
2018-04-08T20:05:27.668Z,15.90
2018-04-08T20:07:56.210Z,15.90
2018-04-08T20:10:24.666Z,15.90
2018-04-08T20:12:53.066Z,15.80
2018-04-08T20:15:22.268Z,15.80
2018-04-08T20:17:51.406Z,15.90
2018-04-08T20:20:19.928Z,15.90
2018-04-08T20:22:49.031Z,16.10
2018-04-08T20:25:18.096Z,16.00
2018-04-08T20:27:46.211Z,16.00
2018-04-08T20:30:15.088Z,16.00
2018-04-08T20:32:43.977Z,16.00
2018-04-08T20:35:13.044Z,16.10
2018-04-08T20:37:41.054Z,16.10
2018-04-08T20:40:09.845Z,16.10
2018-04-08T20:42:37.733Z,16.10
2018-04-08T20:45:05.592Z,15.80
2018-04-08T20:47:33.397Z,15.80
2018-04-08T20:50:01.382Z,15.90
2018-04-08T20:52:29.308Z,15.80
2018-04-08T20:54:57.372Z,15.90
2018-04-08T20:57:25.236Z,15.80
2018-04-08T20:59:53.178Z,15.60
2018-04-08T21:02:21.960Z,15.70
2018-04-08T21:04:50.546Z,15.60
2018-04-08T21:07:23.296Z,15.60
2018-04-08T21:09:51.288Z,15.60
2018-04-08T21:12:19.933Z,15.60
2018-04-08T21:14:47.762Z,15.50
2018-04-08T21:17:15.610Z,15.40
2018-04-08T21:19:44.276Z,15.60
2018-04-08T21:22:12.076Z,15.50
2018-04-08T21:24:40.114Z,15.40
2018-04-08T21:27:08.810Z,15.30
2018-04-08T21:29:37.407Z,15.30
2018-04-08T21:32:06.065Z,15.20
2018-04-08T21:34:34.759Z,15.20
2018-04-08T21:37:03.317Z,15.00
2018-04-08T21:39:31.224Z,15.00
2018-04-08T21:41:59.142Z,14.90
2018-04-08T21:44:27.030Z,15.00
2018-04-08T21:46:54.976Z,15.00
2018-04-08T21:49:22.822Z,15.00
2018-04-08T21:51:50.746Z,15.10
2018-04-08T21:54:19.495Z,15.00
